sensor_id;sensor_type;location;lat;lon;timestamp;P1;durP1;ratioP1;P2;durP2;ratioP2
14007;SDS011;61651;45.508;12.232;2022-12-08T00:02:14;5.10;;;4.27;;
14007;SDS011;61651;45.508;12.232;2022-12-08T00:05:16;6.27;;;4.73;;
14007;SDS011;61651;45.508;12.232;2022-12-08T00:08:36;4.87;;;4.23;;
14007;SDS011;61651;45.508;12.232;2022-12-08T00:11:56;4.97;;;4.20;;
14007;SDS011;61651;45.508;12.232;2022-12-08T00:15:00;4.37;;;3.87;;
14007;SDS011;61651;45.508;12.232;2022-12-08T00:18:02;5.17;;;4.47;;
14007;SDS011;61651;45.508;12.232;2022-12-08T00:21:05;5.47;;;4.67;;
14007;SDS011;61651;45.508;12.232;2022-12-08T00:24:07;5.60;;;4.93;;
14007;SDS011;61651;45.508;12.232;2022-12-08T00:27:10;4.57;;;4.03;;
14007;SDS011;61651;45.508;12.232;2022-12-08T00:30:14;4.43;;;4.03;;
14007;SDS011;61651;45.508;12.232;2022-12-08T00:33:16;4.97;;;4.50;;
14007;SDS011;61651;45.508;12.232;2022-12-08T00:36:18;5.73;;;4.10;;
14007;SDS011;61651;45.508;12.232;2022-12-08T00:39:21;5.60;;;4.20;;
14007;SDS011;61651;45.508;12.232;2022-12-08T00:42:22;6.00;;;4.80;;
14007;SDS011;61651;45.508;12.232;2022-12-08T00:45:26;4.90;;;4.27;;
14007;SDS011;61651;45.508;12.232;2022-12-08T00:48:28;7.40;;;3.93;;
14007;SDS011;61651;45.508;12.232;2022-12-08T00:51:30;5.70;;;5.10;;
14007;SDS011;61651;45.508;12.232;2022-12-08T00:54:33;5.87;;;4.83;;
14007;SDS011;61651;45.508;12.232;2022-12-08T00:57:35;5.77;;;4.23;;
14007;SDS011;61651;45.508;12.232;2022-12-08T01:00:40;6.60;;;5.10;;
14007;SDS011;61651;45.508;12.232;2022-12-08T01:03:42;7.23;;;4.77;;
14007;SDS011;61651;45.508;12.232;2022-12-08T01:06:45;5.67;;;5.17;;
14007;SDS011;61651;45.508;12.232;2022-12-08T01:09:47;5.60;;;5.10;;
14007;SDS011;61651;45.508;12.232;2022-12-08T01:12:49;7.00;;;5.33;;
14007;SDS011;61651;45.508;12.232;2022-12-08T01:15:52;4.60;;;4.20;;
14007;SDS011;61651;45.508;12.232;2022-12-08T01:18:55;6.07;;;4.77;;
14007;SDS011;61651;45.508;12.232;2022-12-08T01:21:57;5.30;;;4.80;;
14007;SDS011;61651;45.508;12.232;2022-12-08T01:24:59;5.97;;;5.30;;
14007;SDS011;61651;45.508;12.232;2022-12-08T01:28:01;5.50;;;5.00;;
14007;SDS011;61651;45.508;12.232;2022-12-08T01:31:08;5.10;;;4.50;;
14007;SDS011;61651;45.508;12.232;2022-12-08T01:34:12;5.87;;;4.40;;
14007;SDS011;61651;45.508;12.232;2022-12-08T01:37:14;6.17;;;4.27;;
14007;SDS011;61651;45.508;12.232;2022-12-08T01:40:16;4.70;;;4.20;;
14007;SDS011;61651;45.508;12.232;2022-12-08T01:43:19;6.57;;;4.60;;
14007;SDS011;61651;45.508;12.232;2022-12-08T01:46:22;4.97;;;4.47;;
14007;SDS011;61651;45.508;12.232;2022-12-08T01:49:25;4.00;;;3.60;;
14007;SDS011;61651;45.508;12.232;2022-12-08T01:52:31;4.43;;;4.00;;
14007;SDS011;61651;45.508;12.232;2022-12-08T01:55:37;5.00;;;4.27;;
14007;SDS011;61651;45.508;12.232;2022-12-08T01:58:44;5.83;;;4.50;;
14007;SDS011;61651;45.508;12.232;2022-12-08T02:01:50;4.17;;;3.77;;
14007;SDS011;61651;45.508;12.232;2022-12-08T02:04:52;4.47;;;4.07;;
14007;SDS011;61651;45.508;12.232;2022-12-08T02:07:54;4.53;;;3.83;;
14007;SDS011;61651;45.508;12.232;2022-12-08T02:10:58;4.60;;;4.10;;
14007;SDS011;61651;45.508;12.232;2022-12-08T02:14:00;4.40;;;4.00;;
14007;SDS011;61651;45.508;12.232;2022-12-08T02:17:11;5.20;;;4.13;;
14007;SDS011;61651;45.508;12.232;2022-12-08T02:20:34;4.23;;;3.83;;
14007;SDS011;61651;45.508;12.232;2022-12-08T02:23:46;5.47;;;4.10;;
14007;SDS011;61651;45.508;12.232;2022-12-08T02:27:06;4.73;;;4.30;;
14007;SDS011;61651;45.508;12.232;2022-12-08T02:30:21;5.40;;;3.90;;
14007;SDS011;61651;45.508;12.232;2022-12-08T02:37:05;6.80;;;4.67;;
14007;SDS011;61651;45.508;12.232;2022-12-08T02:40:11;4.63;;;4.13;;
14007;SDS011;61651;45.508;12.232;2022-12-08T02:43:22;5.53;;;4.83;;
14007;SDS011;61651;45.508;12.232;2022-12-08T02:46:30;6.73;;;5.70;;
14007;SDS011;61651;45.508;12.232;2022-12-08T02:49:37;7.60;;;5.57;;
14007;SDS011;61651;45.508;12.232;2022-12-08T02:52:41;6.20;;;5.60;;
14007;SDS011;61651;45.508;12.232;2022-12-08T02:55:45;5.33;;;4.80;;
14007;SDS011;61651;45.508;12.232;2022-12-08T02:59:01;6.00;;;5.33;;
14007;SDS011;61651;45.508;12.232;2022-12-08T03:02:14;7.20;;;6.50;;
14007;SDS011;61651;45.508;12.232;2022-12-08T03:05:33;6.30;;;5.57;;
14007;SDS011;61651;45.508;12.232;2022-12-08T03:08:50;7.17;;;5.90;;
14007;SDS011;61651;45.508;12.232;2022-12-08T03:11:57;6.50;;;5.70;;
14007;SDS011;61651;45.508;12.232;2022-12-08T03:15:06;9.20;;;5.70;;
14007;SDS011;61651;45.508;12.232;2022-12-08T03:18:11;7.47;;;6.00;;
14007;SDS011;61651;45.508;12.232;2022-12-08T03:21:17;6.03;;;5.43;;
14007;SDS011;61651;45.508;12.232;2022-12-08T03:24:21;6.63;;;5.23;;
14007;SDS011;61651;45.508;12.232;2022-12-08T03:27:24;6.70;;;5.53;;
14007;SDS011;61651;45.508;12.232;2022-12-08T03:30:29;6.20;;;5.60;;
14007;SDS011;61651;45.508;12.232;2022-12-08T03:33:34;7.57;;;6.00;;
14007;SDS011;61651;45.508;12.232;2022-12-08T03:36:40;6.40;;;5.80;;
14007;SDS011;61651;45.508;12.232;2022-12-08T03:39:43;7.07;;;6.37;;
14007;SDS011;61651;45.508;12.232;2022-12-08T03:42:45;8.70;;;6.23;;
14007;SDS011;61651;45.508;12.232;2022-12-08T03:45:47;6.93;;;6.23;;
14007;SDS011;61651;45.508;12.232;2022-12-08T03:48:49;8.13;;;6.13;;
14007;SDS011;61651;45.508;12.232;2022-12-08T03:51:53;7.00;;;5.87;;
14007;SDS011;61651;45.508;12.232;2022-12-08T03:54:55;6.17;;;5.43;;
14007;SDS011;61651;45.508;12.232;2022-12-08T03:57:57;5.80;;;5.00;;
14007;SDS011;61651;45.508;12.232;2022-12-08T04:00:59;6.37;;;5.73;;
14007;SDS011;61651;45.508;12.232;2022-12-08T04:04:01;8.77;;;6.43;;
14007;SDS011;61651;45.508;12.232;2022-12-08T04:07:04;6.90;;;5.67;;
14007;SDS011;61651;45.508;12.232;2022-12-08T04:10:07;7.37;;;5.90;;
14007;SDS011;61651;45.508;12.232;2022-12-08T04:13:09;5.90;;;5.27;;
14007;SDS011;61651;45.508;12.232;2022-12-08T04:16:15;7.27;;;5.77;;
14007;SDS011;61651;45.508;12.232;2022-12-08T04:19:18;6.57;;;5.20;;
14007;SDS011;61651;45.508;12.232;2022-12-08T04:22:21;6.40;;;5.80;;
14007;SDS011;61651;45.508;12.232;2022-12-08T04:25:23;7.37;;;5.40;;
14007;SDS011;61651;45.508;12.232;2022-12-08T04:28:25;6.13;;;5.43;;
14007;SDS011;61651;45.508;12.232;2022-12-08T04:31:28;6.60;;;5.53;;
14007;SDS011;61651;45.508;12.232;2022-12-08T04:34:30;6.10;;;5.33;;
14007;SDS011;61651;45.508;12.232;2022-12-08T04:37:33;6.17;;;5.40;;
14007;SDS011;61651;45.508;12.232;2022-12-08T04:40:35;5.67;;;5.13;;
14007;SDS011;61651;45.508;12.232;2022-12-08T04:43:37;6.03;;;4.80;;
14007;SDS011;61651;45.508;12.232;2022-12-08T04:46:40;7.07;;;5.20;;
14007;SDS011;61651;45.508;12.232;2022-12-08T04:49:42;5.97;;;5.17;;
14007;SDS011;61651;45.508;12.232;2022-12-08T04:52:45;7.43;;;5.20;;
14007;SDS011;61651;45.508;12.232;2022-12-08T04:55:47;6.00;;;4.73;;
14007;SDS011;61651;45.508;12.232;2022-12-08T04:58:49;6.30;;;5.10;;
14007;SDS011;61651;45.508;12.232;2022-12-08T05:01:51;6.33;;;5.27;;
14007;SDS011;61651;45.508;12.232;2022-12-08T05:04:53;5.23;;;4.40;;
14007;SDS011;61651;45.508;12.232;2022-12-08T05:07:57;6.63;;;5.70;;
14007;SDS011;61651;45.508;12.232;2022-12-08T05:11:02;6.00;;;4.90;;
14007;SDS011;61651;45.508;12.232;2022-12-08T05:14:05;5.70;;;4.63;;
14007;SDS011;61651;45.508;12.232;2022-12-08T05:17:08;5.10;;;4.50;;
14007;SDS011;61651;45.508;12.232;2022-12-08T05:20:10;4.97;;;4.50;;
14007;SDS011;61651;45.508;12.232;2022-12-08T05:23:14;5.40;;;4.63;;
14007;SDS011;61651;45.508;12.232;2022-12-08T05:26:16;5.80;;;4.90;;
14007;SDS011;61651;45.508;12.232;2022-12-08T05:29:18;4.83;;;4.43;;
14007;SDS011;61651;45.508;12.232;2022-12-08T05:32:20;5.03;;;4.53;;
14007;SDS011;61651;45.508;12.232;2022-12-08T05:35:22;9.33;;;4.87;;
14007;SDS011;61651;45.508;12.232;2022-12-08T05:38:25;7.27;;;4.67;;
14007;SDS011;61651;45.508;12.232;2022-12-08T05:41:28;6.47;;;5.13;;
14007;SDS011;61651;45.508;12.232;2022-12-08T05:44:30;6.10;;;5.27;;
14007;SDS011;61651;45.508;12.232;2022-12-08T05:47:32;6.10;;;5.07;;
14007;SDS011;61651;45.508;12.232;2022-12-08T05:50:34;7.60;;;5.30;;
14007;SDS011;61651;45.508;12.232;2022-12-08T05:53:38;5.57;;;5.03;;
14007;SDS011;61651;45.508;12.232;2022-12-08T05:56:40;6.03;;;4.70;;
14007;SDS011;61651;45.508;12.232;2022-12-08T05:59:42;6.10;;;4.83;;
14007;SDS011;61651;45.508;12.232;2022-12-08T06:02:44;5.50;;;4.83;;
14007;SDS011;61651;45.508;12.232;2022-12-08T06:05:46;6.87;;;5.37;;
14007;SDS011;61651;45.508;12.232;2022-12-08T06:08:49;6.10;;;5.03;;
14007;SDS011;61651;45.508;12.232;2022-12-08T06:11:52;5.50;;;4.77;;
14007;SDS011;61651;45.508;12.232;2022-12-08T06:14:54;5.80;;;4.93;;
14007;SDS011;61651;45.508;12.232;2022-12-08T06:17:55;6.93;;;5.33;;
14007;SDS011;61651;45.508;12.232;2022-12-08T06:21:01;7.93;;;5.30;;
14007;SDS011;61651;45.508;12.232;2022-12-08T06:24:05;6.27;;;5.00;;
14007;SDS011;61651;45.508;12.232;2022-12-08T06:27:08;7.93;;;6.07;;
14007;SDS011;61651;45.508;12.232;2022-12-08T06:30:10;6.63;;;5.53;;
14007;SDS011;61651;45.508;12.232;2022-12-08T06:33:12;5.53;;;5.03;;
14007;SDS011;61651;45.508;12.232;2022-12-08T06:36:15;6.27;;;5.37;;
14007;SDS011;61651;45.508;12.232;2022-12-08T06:39:19;6.97;;;5.60;;
14007;SDS011;61651;45.508;12.232;2022-12-08T06:42:21;6.77;;;5.57;;
14007;SDS011;61651;45.508;12.232;2022-12-08T06:45:41;6.60;;;6.00;;
14007;SDS011;61651;45.508;12.232;2022-12-08T06:48:43;6.83;;;5.40;;
14007;SDS011;61651;45.508;12.232;2022-12-08T06:51:45;6.80;;;6.10;;
14007;SDS011;61651;45.508;12.232;2022-12-08T06:54:48;7.33;;;5.33;;
14007;SDS011;61651;45.508;12.232;2022-12-08T06:57:52;6.27;;;5.57;;
14007;SDS011;61651;45.508;12.232;2022-12-08T07:00:54;7.47;;;6.00;;
14007;SDS011;61651;45.508;12.232;2022-12-08T07:03:56;7.57;;;6.27;;
14007;SDS011;61651;45.508;12.232;2022-12-08T07:06:58;6.63;;;5.87;;
14007;SDS011;61651;45.508;12.232;2022-12-08T07:10:01;6.60;;;6.00;;
14007;SDS011;61651;45.508;12.232;2022-12-08T07:13:03;8.17;;;6.83;;
14007;SDS011;61651;45.508;12.232;2022-12-08T07:16:06;7.90;;;6.53;;
14007;SDS011;61651;45.508;12.232;2022-12-08T07:19:09;8.27;;;5.93;;
14007;SDS011;61651;45.508;12.232;2022-12-08T07:22:11;7.17;;;6.40;;
14007;SDS011;61651;45.508;12.232;2022-12-08T07:25:15;9.77;;;6.50;;
14007;SDS011;61651;45.508;12.232;2022-12-08T07:28:17;6.93;;;6.27;;
14007;SDS011;61651;45.508;12.232;2022-12-08T07:31:20;8.73;;;6.43;;
14007;SDS011;61651;45.508;12.232;2022-12-08T07:34:23;8.47;;;6.47;;
14007;SDS011;61651;45.508;12.232;2022-12-08T07:37:25;10.47;;;7.13;;
14007;SDS011;61651;45.508;12.232;2022-12-08T07:40:28;7.23;;;6.53;;
14007;SDS011;61651;45.508;12.232;2022-12-08T07:43:30;6.80;;;6.10;;
14007;SDS011;61651;45.508;12.232;2022-12-08T07:46:32;8.53;;;6.60;;
14007;SDS011;61651;45.508;12.232;2022-12-08T07:49:34;8.97;;;6.60;;
14007;SDS011;61651;45.508;12.232;2022-12-08T07:52:36;8.97;;;6.50;;
14007;SDS011;61651;45.508;12.232;2022-12-08T07:55:39;8.83;;;7.03;;
14007;SDS011;61651;45.508;12.232;2022-12-08T07:58:42;8.73;;;6.33;;
14007;SDS011;61651;45.508;12.232;2022-12-08T08:01:45;7.17;;;6.47;;
14007;SDS011;61651;45.508;12.232;2022-12-08T08:04:48;9.10;;;6.60;;
14007;SDS011;61651;45.508;12.232;2022-12-08T08:07:50;7.67;;;6.37;;
14007;SDS011;61651;45.508;12.232;2022-12-08T08:10:54;7.83;;;6.97;;
14007;SDS011;61651;45.508;12.232;2022-12-08T08:13:56;7.77;;;6.60;;
14007;SDS011;61651;45.508;12.232;2022-12-08T08:16:58;7.97;;;6.83;;
14007;SDS011;61651;45.508;12.232;2022-12-08T08:20:00;7.17;;;6.47;;
14007;SDS011;61651;45.508;12.232;2022-12-08T08:23:02;12.33;;;6.93;;
14007;SDS011;61651;45.508;12.232;2022-12-08T08:26:06;9.07;;;6.80;;
14007;SDS011;61651;45.508;12.232;2022-12-08T08:29:08;8.60;;;6.90;;
14007;SDS011;61651;45.508;12.232;2022-12-08T08:32:10;7.13;;;6.43;;
14007;SDS011;61651;45.508;12.232;2022-12-08T08:35:12;8.23;;;7.33;;
14007;SDS011;61651;45.508;12.232;2022-12-08T08:38:14;9.77;;;7.93;;
14007;SDS011;61651;45.508;12.232;2022-12-08T08:41:18;9.63;;;7.73;;
14007;SDS011;61651;45.508;12.232;2022-12-08T08:44:20;7.77;;;6.97;;
14007;SDS011;61651;45.508;12.232;2022-12-08T08:47:22;10.73;;;7.83;;
14007;SDS011;61651;45.508;12.232;2022-12-08T08:50:24;9.60;;;7.20;;
14007;SDS011;61651;45.508;12.232;2022-12-08T08:53:26;10.63;;;7.67;;
14007;SDS011;61651;45.508;12.232;2022-12-08T08:56:30;12.10;;;7.87;;
14007;SDS011;61651;45.508;12.232;2022-12-08T08:59:31;10.03;;;8.47;;
14007;SDS011;61651;45.508;12.232;2022-12-08T09:02:33;9.43;;;7.77;;
14007;SDS011;61651;45.508;12.232;2022-12-08T09:05:36;11.40;;;7.43;;
14007;SDS011;61651;45.508;12.232;2022-12-08T09:08:39;8.40;;;7.57;;
14007;SDS011;61651;45.508;12.232;2022-12-08T09:11:43;8.13;;;7.33;;
14007;SDS011;61651;45.508;12.232;2022-12-08T09:14:45;13.30;;;7.23;;
14007;SDS011;61651;45.508;12.232;2022-12-08T09:17:47;9.40;;;8.07;;
14007;SDS011;61651;45.508;12.232;2022-12-08T09:20:49;10.57;;;7.30;;
14007;SDS011;61651;45.508;12.232;2022-12-08T09:23:52;7.93;;;6.97;;
14007;SDS011;61651;45.508;12.232;2022-12-08T09:26:56;9.70;;;7.70;;
14007;SDS011;61651;45.508;12.232;2022-12-08T09:29:58;8.47;;;6.53;;
14007;SDS011;61651;45.508;12.232;2022-12-08T09:33:00;8.37;;;7.07;;
14007;SDS011;61651;45.508;12.232;2022-12-08T09:36:03;7.67;;;6.67;;
14007;SDS011;61651;45.508;12.232;2022-12-08T09:39:05;9.20;;;8.03;;
14007;SDS011;61651;45.508;12.232;2022-12-08T09:42:09;7.50;;;6.63;;
14007;SDS011;61651;45.508;12.232;2022-12-08T09:45:13;8.00;;;6.83;;
14007;SDS011;61651;45.508;12.232;2022-12-08T09:48:17;6.93;;;6.23;;
14007;SDS011;61651;45.508;12.232;2022-12-08T09:51:25;9.33;;;7.40;;
14007;SDS011;61651;45.508;12.232;2022-12-08T09:54:35;7.50;;;6.70;;
14007;SDS011;61651;45.508;12.232;2022-12-08T09:57:39;8.30;;;7.50;;
14007;SDS011;61651;45.508;12.232;2022-12-08T10:00:41;10.03;;;7.60;;
14007;SDS011;61651;45.508;12.232;2022-12-08T10:03:43;7.33;;;6.63;;
14007;SDS011;61651;45.508;12.232;2022-12-08T10:06:46;8.53;;;7.13;;
14007;SDS011;61651;45.508;12.232;2022-12-08T10:09:58;9.27;;;6.97;;
14007;SDS011;61651;45.508;12.232;2022-12-08T10:13:06;8.00;;;7.17;;
14007;SDS011;61651;45.508;12.232;2022-12-08T10:16:18;9.47;;;7.20;;
14007;SDS011;61651;45.508;12.232;2022-12-08T10:19:24;7.50;;;6.80;;
14007;SDS011;61651;45.508;12.232;2022-12-08T10:22:30;7.73;;;6.97;;
14007;SDS011;61651;45.508;12.232;2022-12-08T10:25:35;8.83;;;7.37;;
14007;SDS011;61651;45.508;12.232;2022-12-08T10:28:43;8.73;;;6.83;;
14007;SDS011;61651;45.508;12.232;2022-12-08T10:31:46;7.77;;;6.37;;
14007;SDS011;61651;45.508;12.232;2022-12-08T10:34:58;8.70;;;7.50;;
14007;SDS011;61651;45.508;12.232;2022-12-08T10:38:02;8.93;;;7.10;;
14007;SDS011;61651;45.508;12.232;2022-12-08T10:41:06;7.20;;;6.50;;
14007;SDS011;61651;45.508;12.232;2022-12-08T10:44:18;7.63;;;6.83;;
14007;SDS011;61651;45.508;12.232;2022-12-08T10:47:21;7.67;;;6.97;;
14007;SDS011;61651;45.508;12.232;2022-12-08T10:50:27;8.30;;;7.40;;
14007;SDS011;61651;45.508;12.232;2022-12-08T10:53:32;8.57;;;7.50;;
14007;SDS011;61651;45.508;12.232;2022-12-08T10:56:44;7.33;;;6.63;;
14007;SDS011;61651;45.508;12.232;2022-12-08T10:59:56;8.23;;;7.13;;
14007;SDS011;61651;45.508;12.232;2022-12-08T11:02:58;8.63;;;7.07;;
14007;SDS011;61651;45.508;12.232;2022-12-08T11:06:08;6.27;;;5.50;;
14007;SDS011;61651;45.508;12.232;2022-12-08T11:09:22;7.80;;;6.10;;
14007;SDS011;61651;45.508;12.232;2022-12-08T11:12:38;8.03;;;6.13;;
14007;SDS011;61651;45.508;12.232;2022-12-08T11:15:45;7.30;;;6.43;;
14007;SDS011;61651;45.508;12.232;2022-12-08T11:18:54;7.37;;;6.07;;
14007;SDS011;61651;45.508;12.232;2022-12-08T11:21:57;9.97;;;6.57;;
14007;SDS011;61651;45.508;12.232;2022-12-08T11:25:07;7.77;;;6.97;;
14007;SDS011;61651;45.508;12.232;2022-12-08T11:28:10;8.77;;;6.80;;
14007;SDS011;61651;45.508;12.232;2022-12-08T11:31:19;7.03;;;6.33;;
14007;SDS011;61651;45.508;12.232;2022-12-08T11:34:30;10.00;;;8.03;;
14007;SDS011;61651;45.508;12.232;2022-12-08T11:37:36;8.73;;;7.80;;
14007;SDS011;61651;45.508;12.232;2022-12-08T11:40:41;10.53;;;7.97;;
14007;SDS011;61651;45.508;12.232;2022-12-08T11:43:45;9.47;;;8.13;;
14007;SDS011;61651;45.508;12.232;2022-12-08T11:46:55;8.47;;;7.57;;
14007;SDS011;61651;45.508;12.232;2022-12-08T11:50:02;9.03;;;7.63;;
14007;SDS011;61651;45.508;12.232;2022-12-08T11:53:14;12.57;;;8.37;;
14007;SDS011;61651;45.508;12.232;2022-12-08T11:56:22;11.20;;;8.03;;
14007;SDS011;61651;45.508;12.232;2022-12-08T11:59:30;7.80;;;7.00;;
14007;SDS011;61651;45.508;12.232;2022-12-08T12:02:36;10.27;;;9.17;;
14007;SDS011;61651;45.508;12.232;2022-12-08T12:05:47;9.73;;;8.57;;
14007;SDS011;61651;45.508;12.232;2022-12-08T12:09:00;13.07;;;9.83;;
14007;SDS011;61651;45.508;12.232;2022-12-08T12:12:13;9.90;;;8.00;;
14007;SDS011;61651;45.508;12.232;2022-12-08T12:15:41;10.70;;;8.70;;
14007;SDS011;61651;45.508;12.232;2022-12-08T12:19:04;10.47;;;8.57;;
14007;SDS011;61651;45.508;12.232;2022-12-08T12:22:13;9.83;;;8.40;;
14007;SDS011;61651;45.508;12.232;2022-12-08T12:25:18;8.83;;;7.73;;
14007;SDS011;61651;45.508;12.232;2022-12-08T12:28:23;9.13;;;8.23;;
14007;SDS011;61651;45.508;12.232;2022-12-08T12:31:27;9.80;;;6.90;;
14007;SDS011;61651;45.508;12.232;2022-12-08T12:34:33;8.73;;;7.83;;
14007;SDS011;61651;45.508;12.232;2022-12-08T12:37:38;8.50;;;7.47;;
14007;SDS011;61651;45.508;12.232;2022-12-08T12:40:42;8.60;;;7.73;;
14007;SDS011;61651;45.508;12.232;2022-12-08T12:44:07;10.37;;;7.63;;
14007;SDS011;61651;45.508;12.232;2022-12-08T12:50:48;9.10;;;8.20;;
14007;SDS011;61651;45.508;12.232;2022-12-08T12:53:51;9.27;;;8.33;;
14007;SDS011;61651;45.508;12.232;2022-12-08T12:56:53;9.57;;;8.00;;
14007;SDS011;61651;45.508;12.232;2022-12-08T13:00:06;9.70;;;8.67;;
14007;SDS011;61651;45.508;12.232;2022-12-08T13:03:17;10.63;;;8.80;;
14007;SDS011;61651;45.508;12.232;2022-12-08T13:06:22;10.40;;;8.63;;
14007;SDS011;61651;45.508;12.232;2022-12-08T13:09:33;9.73;;;8.73;;
14007;SDS011;61651;45.508;12.232;2022-12-08T13:12:38;9.60;;;8.27;;
14007;SDS011;61651;45.508;12.232;2022-12-08T13:15:47;11.47;;;8.93;;
14007;SDS011;61651;45.508;12.232;2022-12-08T13:18:51;10.23;;;9.07;;
14007;SDS011;61651;45.508;12.232;2022-12-08T13:21:59;10.57;;;9.10;;
14007;SDS011;61651;45.508;12.232;2022-12-08T13:32:06;12.33;;;11.13;;
14007;SDS011;61651;45.508;12.232;2022-12-08T13:35:49;11.87;;;10.60;;
14007;SDS011;61651;45.508;12.232;2022-12-08T13:38:59;11.73;;;8.93;;
14007;SDS011;61651;45.508;12.232;2022-12-08T13:42:04;9.70;;;8.80;;
14007;SDS011;61651;45.508;12.232;2022-12-08T13:45:15;9.73;;;8.77;;
14007;SDS011;61651;45.508;12.232;2022-12-08T13:48:23;9.27;;;8.13;;
14007;SDS011;61651;45.508;12.232;2022-12-08T13:51:32;9.70;;;8.17;;
14007;SDS011;61651;45.508;12.232;2022-12-08T13:54:41;9.03;;;8.13;;
14007;SDS011;61651;45.508;12.232;2022-12-08T13:57:45;9.93;;;8.27;;
14007;SDS011;61651;45.508;12.232;2022-12-08T14:00:53;11.00;;;9.20;;
14007;SDS011;61651;45.508;12.232;2022-12-08T14:03:58;9.83;;;8.83;;
14007;SDS011;61651;45.508;12.232;2022-12-08T14:07:00;10.10;;;8.37;;
14007;SDS011;61651;45.508;12.232;2022-12-08T14:10:08;10.17;;;7.40;;
14007;SDS011;61651;45.508;12.232;2022-12-08T14:13:14;9.33;;;7.20;;
14007;SDS011;61651;45.508;12.232;2022-12-08T14:16:22;9.83;;;7.77;;
14007;SDS011;61651;45.508;12.232;2022-12-08T14:19:29;8.30;;;7.43;;
14007;SDS011;61651;45.508;12.232;2022-12-08T14:22:33;8.50;;;7.13;;
14007;SDS011;61651;45.508;12.232;2022-12-08T14:25:37;9.83;;;8.10;;
14007;SDS011;61651;45.508;12.232;2022-12-08T14:28:47;9.30;;;8.27;;
14007;SDS011;61651;45.508;12.232;2022-12-08T14:31:51;9.73;;;8.27;;
14007;SDS011;61651;45.508;12.232;2022-12-08T14:34:55;9.20;;;8.20;;
14007;SDS011;61651;45.508;12.232;2022-12-08T14:37:59;10.53;;;8.03;;
14007;SDS011;61651;45.508;12.232;2022-12-08T14:41:05;8.87;;;7.90;;
14007;SDS011;61651;45.508;12.232;2022-12-08T14:44:13;8.87;;;7.97;;
14007;SDS011;61651;45.508;12.232;2022-12-08T14:47:27;8.93;;;7.97;;
14007;SDS011;61651;45.508;12.232;2022-12-08T14:50:38;8.50;;;7.67;;
14007;SDS011;61651;45.508;12.232;2022-12-08T14:53:42;9.57;;;7.70;;
14007;SDS011;61651;45.508;12.232;2022-12-08T14:56:49;9.63;;;8.63;;
14007;SDS011;61651;45.508;12.232;2022-12-08T14:59:53;8.77;;;7.87;;
14007;SDS011;61651;45.508;12.232;2022-12-08T15:02:55;11.97;;;8.07;;
14007;SDS011;61651;45.508;12.232;2022-12-08T15:05:58;9.30;;;7.83;;
14007;SDS011;61651;45.508;12.232;2022-12-08T15:09:13;8.97;;;7.90;;
14007;SDS011;61651;45.508;12.232;2022-12-08T15:12:20;9.83;;;8.70;;
14007;SDS011;61651;45.508;12.232;2022-12-08T15:15:24;9.43;;;8.37;;
14007;SDS011;61651;45.508;12.232;2022-12-08T15:18:27;10.17;;;8.67;;
14007;SDS011;61651;45.508;12.232;2022-12-08T15:21:35;13.87;;;11.37;;
14007;SDS011;61651;45.508;12.232;2022-12-08T15:24:39;13.70;;;9.80;;
14007;SDS011;61651;45.508;12.232;2022-12-08T15:27:42;10.97;;;8.77;;
14007;SDS011;61651;45.508;12.232;2022-12-08T15:30:44;10.53;;;8.77;;
14007;SDS011;61651;45.508;12.232;2022-12-08T15:33:47;9.50;;;8.60;;
14007;SDS011;61651;45.508;12.232;2022-12-08T15:36:49;11.00;;;9.03;;
14007;SDS011;61651;45.508;12.232;2022-12-08T15:39:53;10.90;;;9.47;;
14007;SDS011;61651;45.508;12.232;2022-12-08T15:42:56;10.87;;;9.27;;
14007;SDS011;61651;45.508;12.232;2022-12-08T15:45:58;11.27;;;9.83;;
14007;SDS011;61651;45.508;12.232;2022-12-08T15:49:01;22.23;;;10.77;;
14007;SDS011;61651;45.508;12.232;2022-12-08T15:52:03;18.70;;;13.40;;
14007;SDS011;61651;45.508;12.232;2022-12-08T15:55:07;21.50;;;16.43;;
14007;SDS011;61651;45.508;12.232;2022-12-08T15:58:16;22.57;;;16.60;;
14007;SDS011;61651;45.508;12.232;2022-12-08T16:01:19;17.83;;;15.70;;
14007;SDS011;61651;45.508;12.232;2022-12-08T16:04:21;18.57;;;15.33;;
14007;SDS011;61651;45.508;12.232;2022-12-08T16:07:24;21.40;;;17.13;;
14007;SDS011;61651;45.508;12.232;2022-12-08T16:10:27;21.00;;;15.50;;
14007;SDS011;61651;45.508;12.232;2022-12-08T16:13:31;21.03;;;15.97;;
14007;SDS011;61651;45.508;12.232;2022-12-08T16:16:50;19.10;;;13.43;;
14007;SDS011;61651;45.508;12.232;2022-12-08T16:19:52;20.93;;;13.47;;
14007;SDS011;61651;45.508;12.232;2022-12-08T16:22:54;16.47;;;13.17;;
14007;SDS011;61651;45.508;12.232;2022-12-08T16:25:56;18.70;;;13.80;;
14007;SDS011;61651;45.508;12.232;2022-12-08T16:29:00;28.17;;;19.27;;
14007;SDS011;61651;45.508;12.232;2022-12-08T16:32:02;21.90;;;17.90;;
14007;SDS011;61651;45.508;12.232;2022-12-08T16:35:04;23.43;;;18.23;;
14007;SDS011;61651;45.508;12.232;2022-12-08T16:38:07;20.37;;;16.37;;
14007;SDS011;61651;45.508;12.232;2022-12-08T16:41:12;19.27;;;15.80;;
14007;SDS011;61651;45.508;12.232;2022-12-08T16:44:33;18.70;;;15.40;;
14007;SDS011;61651;45.508;12.232;2022-12-08T16:47:41;21.30;;;14.70;;
14007;SDS011;61651;45.508;12.232;2022-12-08T16:50:45;19.57;;;14.53;;
14007;SDS011;61651;45.508;12.232;2022-12-08T16:53:47;20.30;;;15.00;;
14007;SDS011;61651;45.508;12.232;2022-12-08T16:56:49;19.67;;;14.83;;
14007;SDS011;61651;45.508;12.232;2022-12-08T16:59:52;18.07;;;14.07;;
14007;SDS011;61651;45.508;12.232;2022-12-08T17:02:54;18.07;;;13.13;;
14007;SDS011;61651;45.508;12.232;2022-12-08T17:05:57;17.57;;;13.87;;
14007;SDS011;61651;45.508;12.232;2022-12-08T17:09:00;17.30;;;14.50;;
14007;SDS011;61651;45.508;12.232;2022-12-08T17:12:02;17.53;;;13.67;;
14007;SDS011;61651;45.508;12.232;2022-12-08T17:15:07;17.60;;;13.93;;
14007;SDS011;61651;45.508;12.232;2022-12-08T17:18:12;21.27;;;14.80;;
14007;SDS011;61651;45.508;12.232;2022-12-08T17:21:18;20.77;;;15.23;;
14007;SDS011;61651;45.508;12.232;2022-12-08T17:24:22;22.93;;;15.10;;
14007;SDS011;61651;45.508;12.232;2022-12-08T17:27:28;24.60;;;17.70;;
14007;SDS011;61651;45.508;12.232;2022-12-08T17:30:32;27.97;;;22.53;;
14007;SDS011;61651;45.508;12.232;2022-12-08T17:33:35;25.17;;;20.30;;
14007;SDS011;61651;45.508;12.232;2022-12-08T17:36:38;21.80;;;18.07;;
14007;SDS011;61651;45.508;12.232;2022-12-08T17:39:41;22.80;;;17.30;;
14007;SDS011;61651;45.508;12.232;2022-12-08T17:42:43;19.93;;;16.83;;
14007;SDS011;61651;45.508;12.232;2022-12-08T17:45:46;19.30;;;16.63;;
14007;SDS011;61651;45.508;12.232;2022-12-08T17:48:49;19.43;;;15.73;;
14007;SDS011;61651;45.508;12.232;2022-12-08T17:51:51;24.73;;;17.03;;
14007;SDS011;61651;45.508;12.232;2022-12-08T17:54:54;21.17;;;16.50;;
14007;SDS011;61651;45.508;12.232;2022-12-08T17:57:56;17.53;;;15.27;;
14007;SDS011;61651;45.508;12.232;2022-12-08T18:01:00;18.10;;;15.17;;
14007;SDS011;61651;45.508;12.232;2022-12-08T18:04:08;20.53;;;17.03;;
14007;SDS011;61651;45.508;12.232;2022-12-08T18:07:11;24.07;;;17.27;;
14007;SDS011;61651;45.508;12.232;2022-12-08T18:10:13;21.47;;;16.83;;
14007;SDS011;61651;45.508;12.232;2022-12-08T18:13:17;22.53;;;16.73;;
14007;SDS011;61651;45.508;12.232;2022-12-08T18:16:22;20.83;;;17.20;;
14007;SDS011;61651;45.508;12.232;2022-12-08T18:19:26;22.27;;;17.10;;
14007;SDS011;61651;45.508;12.232;2022-12-08T18:22:28;21.97;;;17.83;;
14007;SDS011;61651;45.508;12.232;2022-12-08T18:25:32;23.80;;;18.03;;